sensor_id;sensor_type;location;lat;lon;timestamp;P1;durP1;ratioP1;P2;durP2;ratioP2
49910;SDS011;35803;53.096;5.844;2023-07-13T00:02:28;2.78;;;0.98;;
49910;SDS011;35803;53.096;5.844;2023-07-13T00:05:13;2.03;;;0.90;;
49910;SDS011;35803;53.096;5.844;2023-07-13T00:07:59;1.65;;;0.70;;
49910;SDS011;35803;53.096;5.844;2023-07-13T00:10:45;2.85;;;0.80;;
49910;SDS011;35803;53.096;5.844;2023-07-13T00:13:31;1.58;;;0.90;;
49910;SDS011;35803;53.096;5.844;2023-07-13T00:16:17;3.33;;;0.77;;
49910;SDS011;35803;53.096;5.844;2023-07-13T00:19:04;2.25;;;0.90;;
49910;SDS011;35803;53.096;5.844;2023-07-13T00:21:50;2.25;;;0.60;;
49910;SDS011;35803;53.096;5.844;2023-07-13T00:24:36;2.47;;;0.90;;
49910;SDS011;35803;53.096;5.844;2023-07-13T00:27:26;1.73;;;0.60;;
49910;SDS011;35803;53.096;5.844;2023-07-13T00:30:12;1.63;;;0.80;;
49910;SDS011;35803;53.096;5.844;2023-07-13T00:32:58;1.80;;;0.73;;
49910;SDS011;35803;53.096;5.844;2023-07-13T00:35:46;2.13;;;0.70;;
49910;SDS011;35803;53.096;5.844;2023-07-13T00:38:33;2.97;;;0.90;;
49910;SDS011;35803;53.096;5.844;2023-07-13T00:41:21;1.67;;;0.80;;
49910;SDS011;35803;53.096;5.844;2023-07-13T00:44:09;3.97;;;0.98;;
49910;SDS011;35803;53.096;5.844;2023-07-13T00:46:59;3.22;;;1.17;;
49910;SDS011;35803;53.096;5.844;2023-07-13T00:49:45;2.72;;;0.98;;
49910;SDS011;35803;53.096;5.844;2023-07-13T00:52:31;1.73;;;0.70;;
49910;SDS011;35803;53.096;5.844;2023-07-13T00:55:16;1.75;;;0.88;;
49910;SDS011;35803;53.096;5.844;2023-07-13T00:58:02;2.20;;;0.68;;
49910;SDS011;35803;53.096;5.844;2023-07-13T01:00:50;1.20;;;0.82;;
49910;SDS011;35803;53.096;5.844;2023-07-13T01:03:36;2.67;;;0.75;;
49910;SDS011;35803;53.096;5.844;2023-07-13T01:06:23;2.40;;;0.80;;
49910;SDS011;35803;53.096;5.844;2023-07-13T01:09:09;2.28;;;0.88;;
49910;SDS011;35803;53.096;5.844;2023-07-13T01:11:57;3.72;;;0.82;;
49910;SDS011;35803;53.096;5.844;2023-07-13T01:14:43;1.33;;;0.60;;
49910;SDS011;35803;53.096;5.844;2023-07-13T01:17:28;2.33;;;1.05;;
49910;SDS011;35803;53.096;5.844;2023-07-13T01:20:14;1.48;;;0.85;;
49910;SDS011;35803;53.096;5.844;2023-07-13T01:23:00;1.95;;;0.80;;
49910;SDS011;35803;53.096;5.844;2023-07-13T01:25:46;2.40;;;0.70;;
49910;SDS011;35803;53.096;5.844;2023-07-13T01:28:32;1.08;;;0.80;;
49910;SDS011;35803;53.096;5.844;2023-07-13T01:31:22;1.52;;;0.75;;
49910;SDS011;35803;53.096;5.844;2023-07-13T01:34:07;2.50;;;0.93;;
49910;SDS011;35803;53.096;5.844;2023-07-13T01:36:53;1.58;;;0.70;;
49910;SDS011;35803;53.096;5.844;2023-07-13T01:39:39;0.90;;;0.70;;
49910;SDS011;35803;53.096;5.844;2023-07-13T01:42:25;3.75;;;1.02;;
49910;SDS011;35803;53.096;5.844;2023-07-13T01:45:10;3.17;;;0.90;;
49910;SDS011;35803;53.096;5.844;2023-07-13T01:47:56;4.30;;;1.08;;
49910;SDS011;35803;53.096;5.844;2023-07-13T01:50:43;6.60;;;1.00;;
49910;SDS011;35803;53.096;5.844;2023-07-13T01:53:29;4.40;;;1.00;;
49910;SDS011;35803;53.096;5.844;2023-07-13T01:56:14;1.65;;;0.88;;
49910;SDS011;35803;53.096;5.844;2023-07-13T01:59:00;5.03;;;1.33;;
49910;SDS011;35803;53.096;5.844;2023-07-13T02:01:46;3.53;;;0.90;;
49910;SDS011;35803;53.096;5.844;2023-07-13T02:04:32;3.05;;;1.17;;
49910;SDS011;35803;53.096;5.844;2023-07-13T02:07:17;3.92;;;1.15;;
49910;SDS011;35803;53.096;5.844;2023-07-13T02:10:03;2.38;;;1.02;;
49910;SDS011;35803;53.096;5.844;2023-07-13T02:12:50;5.18;;;1.20;;
49910;SDS011;35803;53.096;5.844;2023-07-13T02:15:38;5.22;;;1.38;;
49910;SDS011;35803;53.096;5.844;2023-07-13T02:18:25;3.08;;;1.23;;
49910;SDS011;35803;53.096;5.844;2023-07-13T02:21:11;4.68;;;1.63;;
49910;SDS011;35803;53.096;5.844;2023-07-13T02:23:56;3.35;;;1.40;;
49910;SDS011;35803;53.096;5.844;2023-07-13T02:26:43;6.70;;;1.70;;
49910;SDS011;35803;53.096;5.844;2023-07-13T02:29:29;9.98;;;1.60;;
49910;SDS011;35803;53.096;5.844;2023-07-13T02:32:15;4.47;;;1.40;;
49910;SDS011;35803;53.096;5.844;2023-07-13T02:35:00;5.97;;;2.00;;
49910;SDS011;35803;53.096;5.844;2023-07-13T02:37:46;5.80;;;1.65;;
49910;SDS011;35803;53.096;5.844;2023-07-13T02:40:32;3.58;;;1.73;;
49910;SDS011;35803;53.096;5.844;2023-07-13T02:43:21;3.60;;;1.73;;
49910;SDS011;35803;53.096;5.844;2023-07-13T02:46:07;5.13;;;2.40;;
49910;SDS011;35803;53.096;5.844;2023-07-13T02:48:55;3.92;;;1.65;;
49910;SDS011;35803;53.096;5.844;2023-07-13T02:51:41;7.93;;;2.10;;
49910;SDS011;35803;53.096;5.844;2023-07-13T02:54:27;6.70;;;1.92;;
49910;SDS011;35803;53.096;5.844;2023-07-13T02:57:12;9.05;;;2.30;;
49910;SDS011;35803;53.096;5.844;2023-07-13T02:59:58;8.93;;;2.00;;
49910;SDS011;35803;53.096;5.844;2023-07-13T03:02:44;4.75;;;1.67;;
49910;SDS011;35803;53.096;5.844;2023-07-13T03:05:31;7.55;;;1.98;;
49910;SDS011;35803;53.096;5.844;2023-07-13T03:08:16;4.72;;;1.83;;
49910;SDS011;35803;53.096;5.844;2023-07-13T03:11:07;4.00;;;1.92;;
49910;SDS011;35803;53.096;5.844;2023-07-13T03:13:56;4.00;;;1.88;;
49910;SDS011;35803;53.096;5.844;2023-07-13T03:16:42;5.20;;;1.70;;
49910;SDS011;35803;53.096;5.844;2023-07-13T03:19:28;4.38;;;1.92;;
49910;SDS011;35803;53.096;5.844;2023-07-13T03:22:14;3.83;;;1.90;;
49910;SDS011;35803;53.096;5.844;2023-07-13T03:25:00;6.82;;;1.85;;
49910;SDS011;35803;53.096;5.844;2023-07-13T03:27:45;5.93;;;1.67;;
49910;SDS011;35803;53.096;5.844;2023-07-13T03:30:31;6.55;;;2.08;;
49910;SDS011;35803;53.096;5.844;2023-07-13T03:33:17;6.32;;;2.28;;
49910;SDS011;35803;53.096;5.844;2023-07-13T03:36:03;2.33;;;1.77;;
49910;SDS011;35803;53.096;5.844;2023-07-13T03:38:51;8.75;;;2.10;;
49910;SDS011;35803;53.096;5.844;2023-07-13T03:41:38;4.25;;;1.77;;
49910;SDS011;35803;53.096;5.844;2023-07-13T03:44:24;8.75;;;1.70;;
49910;SDS011;35803;53.096;5.844;2023-07-13T03:47:09;4.47;;;1.70;;
49910;SDS011;35803;53.096;5.844;2023-07-13T03:49:55;4.45;;;1.90;;
49910;SDS011;35803;53.096;5.844;2023-07-13T03:52:41;2.70;;;1.70;;
49910;SDS011;35803;53.096;5.844;2023-07-13T03:55:26;4.20;;;2.08;;
49910;SDS011;35803;53.096;5.844;2023-07-13T04:01:19;5.75;;;1.90;;
49910;SDS011;35803;53.096;5.844;2023-07-13T04:04:06;3.25;;;1.77;;
49910;SDS011;35803;53.096;5.844;2023-07-13T04:06:52;4.30;;;1.85;;
49910;SDS011;35803;53.096;5.844;2023-07-13T04:09:38;6.55;;;2.00;;
49910;SDS011;35803;53.096;5.844;2023-07-13T04:12:24;4.85;;;1.55;;
49910;SDS011;35803;53.096;5.844;2023-07-13T04:15:10;5.88;;;1.77;;
49910;SDS011;35803;53.096;5.844;2023-07-13T04:17:55;3.22;;;1.83;;
49910;SDS011;35803;53.096;5.844;2023-07-13T04:20:41;6.15;;;2.08;;
49910;SDS011;35803;53.096;5.844;2023-07-13T04:23:27;4.15;;;1.58;;
49910;SDS011;35803;53.096;5.844;2023-07-13T04:26:13;5.70;;;1.85;;
49910;SDS011;35803;53.096;5.844;2023-07-13T04:28:58;6.20;;;2.00;;
49910;SDS011;35803;53.096;5.844;2023-07-13T04:31:44;8.57;;;1.85;;
49910;SDS011;35803;53.096;5.844;2023-07-13T04:34:30;4.05;;;1.70;;
49910;SDS011;35803;53.096;5.844;2023-07-13T04:37:16;3.92;;;1.90;;
49910;SDS011;35803;53.096;5.844;2023-07-13T04:40:02;7.82;;;1.95;;
49910;SDS011;35803;53.096;5.844;2023-07-13T04:42:49;5.47;;;2.10;;
49910;SDS011;35803;53.096;5.844;2023-07-13T04:45:34;7.90;;;1.92;;
49910;SDS011;35803;53.096;5.844;2023-07-13T04:48:20;4.85;;;1.77;;
49910;SDS011;35803;53.096;5.844;2023-07-13T04:51:06;3.83;;;2.08;;
49910;SDS011;35803;53.096;5.844;2023-07-13T04:53:52;5.80;;;2.17;;
49910;SDS011;35803;53.096;5.844;2023-07-13T04:56:38;4.95;;;1.73;;
49910;SDS011;35803;53.096;5.844;2023-07-13T04:59:24;2.88;;;1.65;;
49910;SDS011;35803;53.096;5.844;2023-07-13T05:02:10;7.65;;;2.10;;
49910;SDS011;35803;53.096;5.844;2023-07-13T05:04:55;5.75;;;2.00;;
49910;SDS011;35803;53.096;5.844;2023-07-13T05:07:41;4.25;;;2.00;;
49910;SDS011;35803;53.096;5.844;2023-07-13T05:10:27;5.60;;;2.13;;
49910;SDS011;35803;53.096;5.844;2023-07-13T05:13:13;1.98;;;1.67;;
49910;SDS011;35803;53.096;5.844;2023-07-13T05:16:00;4.88;;;1.88;;
49910;SDS011;35803;53.096;5.844;2023-07-13T05:18:47;6.95;;;2.00;;
49910;SDS011;35803;53.096;5.844;2023-07-13T05:21:32;7.68;;;1.98;;
49910;SDS011;35803;53.096;5.844;2023-07-13T05:24:18;8.10;;;1.83;;
49910;SDS011;35803;53.096;5.844;2023-07-13T05:27:04;2.60;;;1.85;;
49910;SDS011;35803;53.096;5.844;2023-07-13T05:29:50;3.85;;;1.90;;
49910;SDS011;35803;53.096;5.844;2023-07-13T05:32:36;7.10;;;1.98;;
49910;SDS011;35803;53.096;5.844;2023-07-13T05:35:21;4.22;;;1.65;;
49910;SDS011;35803;53.096;5.844;2023-07-13T05:38:07;6.70;;;2.05;;
49910;SDS011;35803;53.096;5.844;2023-07-13T05:40:53;6.10;;;2.58;;
49910;SDS011;35803;53.096;5.844;2023-07-13T05:43:41;5.10;;;1.83;;
49910;SDS011;35803;53.096;5.844;2023-07-13T05:46:26;6.47;;;1.80;;
49910;SDS011;35803;53.096;5.844;2023-07-13T05:49:12;8.07;;;2.45;;
49910;SDS011;35803;53.096;5.844;2023-07-13T05:51:58;6.22;;;1.75;;
49910;SDS011;35803;53.096;5.844;2023-07-13T05:54:43;5.25;;;2.20;;
49910;SDS011;35803;53.096;5.844;2023-07-13T05:57:30;4.57;;;1.80;;
49910;SDS011;35803;53.096;5.844;2023-07-13T06:00:16;3.50;;;1.70;;
49910;SDS011;35803;53.096;5.844;2023-07-13T06:03:02;7.55;;;1.88;;
49910;SDS011;35803;53.096;5.844;2023-07-13T06:05:47;6.18;;;1.73;;
49910;SDS011;35803;53.096;5.844;2023-07-13T06:08:33;6.72;;;1.52;;
49910;SDS011;35803;53.096;5.844;2023-07-13T06:11:20;6.30;;;1.60;;
49910;SDS011;35803;53.096;5.844;2023-07-13T06:14:08;6.80;;;1.85;;
49910;SDS011;35803;53.096;5.844;2023-07-13T06:16:54;8.77;;;1.95;;
49910;SDS011;35803;53.096;5.844;2023-07-13T06:19:40;2.90;;;1.63;;
49910;SDS011;35803;53.096;5.844;2023-07-13T06:22:25;5.18;;;1.80;;
49910;SDS011;35803;53.096;5.844;2023-07-13T06:25:11;5.82;;;1.98;;
49910;SDS011;35803;53.096;5.844;2023-07-13T06:27:57;6.38;;;1.98;;
49910;SDS011;35803;53.096;5.844;2023-07-13T06:30:42;4.05;;;2.10;;
49910;SDS011;35803;53.096;5.844;2023-07-13T06:33:28;8.55;;;2.58;;
49910;SDS011;35803;53.096;5.844;2023-07-13T06:36:14;5.20;;;2.35;;
49910;SDS011;35803;53.096;5.844;2023-07-13T06:39:00;7.88;;;2.50;;
49910;SDS011;35803;53.096;5.844;2023-07-13T06:41:46;4.18;;;2.30;;
49910;SDS011;35803;53.096;5.844;2023-07-13T06:44:32;7.22;;;2.20;;
49910;SDS011;35803;53.096;5.844;2023-07-13T06:47:17;6.15;;;1.95;;
49910;SDS011;35803;53.096;5.844;2023-07-13T06:50:03;4.82;;;1.88;;
49910;SDS011;35803;53.096;5.844;2023-07-13T06:52:49;4.22;;;1.55;;
49910;SDS011;35803;53.096;5.844;2023-07-13T06:55:35;5.45;;;1.73;;
49910;SDS011;35803;53.096;5.844;2023-07-13T06:58:21;5.75;;;1.80;;
49910;SDS011;35803;53.096;5.844;2023-07-13T07:01:07;5.28;;;1.80;;
49910;SDS011;35803;53.096;5.844;2023-07-13T07:03:52;3.85;;;1.63;;
49910;SDS011;35803;53.096;5.844;2023-07-13T07:06:38;5.38;;;1.80;;
49910;SDS011;35803;53.096;5.844;2023-07-13T07:09:24;5.07;;;1.70;;
49910;SDS011;35803;53.096;5.844;2023-07-13T07:12:09;2.22;;;1.60;;
49910;SDS011;35803;53.096;5.844;2023-07-13T07:14:56;2.53;;;1.30;;
49910;SDS011;35803;53.096;5.844;2023-07-13T07:17:42;5.07;;;1.48;;
49910;SDS011;35803;53.096;5.844;2023-07-13T07:20:28;3.70;;;1.40;;
49910;SDS011;35803;53.096;5.844;2023-07-13T07:23:16;4.95;;;1.48;;
49910;SDS011;35803;53.096;5.844;2023-07-13T07:26:02;3.70;;;1.70;;
49910;SDS011;35803;53.096;5.844;2023-07-13T07:28:47;3.03;;;1.35;;
49910;SDS011;35803;53.096;5.844;2023-07-13T07:31:33;2.75;;;1.40;;
49910;SDS011;35803;53.096;5.844;2023-07-13T07:34:19;6.22;;;1.40;;
49910;SDS011;35803;53.096;5.844;2023-07-13T07:37:05;5.60;;;1.50;;
49910;SDS011;35803;53.096;5.844;2023-07-13T07:39:51;4.88;;;1.67;;
49910;SDS011;35803;53.096;5.844;2023-07-13T07:42:37;4.28;;;1.55;;
49910;SDS011;35803;53.096;5.844;2023-07-13T07:45:26;5.43;;;1.67;;
49910;SDS011;35803;53.096;5.844;2023-07-13T07:48:12;2.20;;;1.33;;
49910;SDS011;35803;53.096;5.844;2023-07-13T07:50:58;2.10;;;1.15;;
49910;SDS011;35803;53.096;5.844;2023-07-13T07:53:43;2.80;;;1.48;;
49910;SDS011;35803;53.096;5.844;2023-07-13T07:56:29;4.00;;;1.40;;
49910;SDS011;35803;53.096;5.844;2023-07-13T07:59:15;4.05;;;1.50;;
49910;SDS011;35803;53.096;5.844;2023-07-13T08:02:01;3.15;;;1.30;;
49910;SDS011;35803;53.096;5.844;2023-07-13T08:04:48;3.10;;;1.42;;
49910;SDS011;35803;53.096;5.844;2023-07-13T08:07:34;4.57;;;1.52;;
49910;SDS011;35803;53.096;5.844;2023-07-13T08:10:20;2.80;;;1.80;;
49910;SDS011;35803;53.096;5.844;2023-07-13T08:13:05;4.20;;;1.55;;
49910;SDS011;35803;53.096;5.844;2023-07-13T08:15:51;2.05;;;1.45;;
49910;SDS011;35803;53.096;5.844;2023-07-13T08:18:37;2.60;;;1.70;;
49910;SDS011;35803;53.096;5.844;2023-07-13T08:21:23;3.63;;;1.55;;
49910;SDS011;35803;53.096;5.844;2023-07-13T08:24:09;3.60;;;1.40;;
49910;SDS011;35803;53.096;5.844;2023-07-13T08:26:55;1.58;;;1.38;;
49910;SDS011;35803;53.096;5.844;2023-07-13T08:29:41;3.20;;;1.23;;
49910;SDS011;35803;53.096;5.844;2023-07-13T08:32:26;3.80;;;1.60;;
49910;SDS011;35803;53.096;5.844;2023-07-13T08:35:12;4.03;;;1.48;;
49910;SDS011;35803;53.096;5.844;2023-07-13T08:37:59;2.15;;;1.40;;
49910;SDS011;35803;53.096;5.844;2023-07-13T08:40:49;1.65;;;1.20;;
49910;SDS011;35803;53.096;5.844;2023-07-13T08:43:38;2.60;;;1.30;;
49910;SDS011;35803;53.096;5.844;2023-07-13T08:46:25;1.92;;;1.10;;
49910;SDS011;35803;53.096;5.844;2023-07-13T08:49:15;2.47;;;1.00;;
49910;SDS011;35803;53.096;5.844;2023-07-13T08:52:44;1.92;;;1.00;;
49910;SDS011;35803;53.096;5.844;2023-07-13T08:55:22;3.05;;;1.08;;
49910;SDS011;35803;53.096;5.844;2023-07-13T08:58:12;1.77;;;1.10;;
49910;SDS011;35803;53.096;5.844;2023-07-13T09:01:06;0.80;;;0.80;;
49910;SDS011;35803;53.096;5.844;2023-07-13T09:04:11;1.52;;;0.82;;
49910;SDS011;35803;53.096;5.844;2023-07-13T09:07:04;1.20;;;1.05;;
49910;SDS011;35803;53.096;5.844;2023-07-13T09:16:08;1.58;;;0.90;;
49910;SDS011;35803;53.096;5.844;2023-07-13T09:18:56;2.60;;;1.00;;
49910;SDS011;35803;53.096;5.844;2023-07-13T09:21:45;1.17;;;0.90;;
49910;SDS011;35803;53.096;5.844;2023-07-13T09:27:23;1.08;;;0.70;;
49910;SDS011;35803;53.096;5.844;2023-07-13T09:32:59;1.30;;;0.75;;
49910;SDS011;35803;53.096;5.844;2023-07-13T09:35:45;1.35;;;0.77;;
49910;SDS011;35803;53.096;5.844;2023-07-13T09:38:31;1.48;;;0.82;;
49910;SDS011;35803;53.096;5.844;2023-07-13T09:41:23;1.45;;;0.70;;
49910;SDS011;35803;53.096;5.844;2023-07-13T09:44:15;2.40;;;1.13;;
49910;SDS011;35803;53.096;5.844;2023-07-13T09:47:02;0.80;;;0.70;;
49910;SDS011;35803;53.096;5.844;2023-07-13T09:49:53;0.80;;;0.75;;
49910;SDS011;35803;53.096;5.844;2023-07-13T09:52:42;0.60;;;0.60;;
49910;SDS011;35803;53.096;5.844;2023-07-13T09:55:37;3.50;;;0.80;;
49910;SDS011;35803;53.096;5.844;2023-07-13T09:58:25;1.67;;;1.05;;
49910;SDS011;35803;53.096;5.844;2023-07-13T10:01:13;0.88;;;0.77;;
49910;SDS011;35803;53.096;5.844;2023-07-13T10:03:59;2.20;;;1.00;;
49910;SDS011;35803;53.096;5.844;2023-07-13T10:06:45;1.15;;;0.82;;
49910;SDS011;35803;53.096;5.844;2023-07-13T10:09:32;3.45;;;1.08;;
49910;SDS011;35803;53.096;5.844;2023-07-13T10:12:18;1.95;;;1.02;;
49910;SDS011;35803;53.096;5.844;2023-07-13T10:15:04;1.45;;;1.02;;
49910;SDS011;35803;53.096;5.844;2023-07-13T10:17:55;1.95;;;0.90;;
49910;SDS011;35803;53.096;5.844;2023-07-13T10:20:44;1.20;;;1.10;;
49910;SDS011;35803;53.096;5.844;2023-07-13T10:23:30;3.65;;;1.27;;
49910;SDS011;35803;53.096;5.844;2023-07-13T10:26:29;3.47;;;1.23;;
49910;SDS011;35803;53.096;5.844;2023-07-13T10:29:16;4.78;;;1.23;;
49910;SDS011;35803;53.096;5.844;2023-07-13T10:32:09;1.42;;;0.95;;
49910;SDS011;35803;53.096;5.844;2023-07-13T10:34:56;2.35;;;1.10;;
49910;SDS011;35803;53.096;5.844;2023-07-13T10:43:35;2.72;;;1.10;;
49910;SDS011;35803;53.096;5.844;2023-07-13T10:46:24;2.05;;;1.13;;
49910;SDS011;35803;53.096;5.844;2023-07-13T10:49:12;3.03;;;1.35;;
49910;SDS011;35803;53.096;5.844;2023-07-13T10:51:58;1.83;;;1.00;;
49910;SDS011;35803;53.096;5.844;2023-07-13T10:54:44;2.10;;;1.15;;
49910;SDS011;35803;53.096;5.844;2023-07-13T10:57:30;2.85;;;1.10;;
49910;SDS011;35803;53.096;5.844;2023-07-13T11:00:17;1.75;;;0.90;;
49910;SDS011;35803;53.096;5.844;2023-07-13T11:03:03;3.03;;;1.23;;
49910;SDS011;35803;53.096;5.844;2023-07-13T11:05:49;2.42;;;1.10;;
49910;SDS011;35803;53.096;5.844;2023-07-13T11:15:11;5.20;;;1.25;;
49910;SDS011;35803;53.096;5.844;2023-07-13T11:17:59;2.17;;;1.00;;
49910;SDS011;35803;53.096;5.844;2023-07-13T11:20:48;3.30;;;1.42;;
49910;SDS011;35803;53.096;5.844;2023-07-13T11:23:34;3.92;;;1.13;;
49910;SDS011;35803;53.096;5.844;2023-07-13T11:29:39;2.33;;;1.08;;
49910;SDS011;35803;53.096;5.844;2023-07-13T11:32:29;1.77;;;1.20;;
49910;SDS011;35803;53.096;5.844;2023-07-13T11:35:18;4.72;;;1.05;;
49910;SDS011;35803;53.096;5.844;2023-07-13T11:41:15;1.63;;;1.00;;
49910;SDS011;35803;53.096;5.844;2023-07-13T11:44:07;4.13;;;1.40;;
49910;SDS011;35803;53.096;5.844;2023-07-13T11:46:59;3.45;;;1.30;;
49910;SDS011;35803;53.096;5.844;2023-07-13T11:49:48;2.80;;;1.13;;
49910;SDS011;35803;53.096;5.844;2023-07-13T11:52:36;1.90;;;0.90;;
49910;SDS011;35803;53.096;5.844;2023-07-13T11:55:22;1.80;;;0.90;;
49910;SDS011;35803;53.096;5.844;2023-07-13T11:58:10;4.22;;;1.20;;
49910;SDS011;35803;53.096;5.844;2023-07-13T12:00:57;2.03;;;1.10;;
49910;SDS011;35803;53.096;5.844;2023-07-13T12:03:50;2.50;;;1.02;;
49910;SDS011;35803;53.096;5.844;2023-07-13T12:06:37;2.58;;;1.02;;
49910;SDS011;35803;53.096;5.844;2023-07-13T12:09:26;2.25;;;1.05;;
49910;SDS011;35803;53.096;5.844;2023-07-13T12:12:14;3.25;;;1.08;;
49910;SDS011;35803;53.096;5.844;2023-07-13T12:15:06;4.20;;;1.00;;
49910;SDS011;35803;53.096;5.844;2023-07-13T12:17:56;2.35;;;0.88;;
49910;SDS011;35803;53.096;5.844;2023-07-13T12:20:42;1.73;;;0.90;;
49910;SDS011;35803;53.096;5.844;2023-07-13T12:23:34;3.33;;;1.17;;
49910;SDS011;35803;53.096;5.844;2023-07-13T12:26:21;3.85;;;1.20;;
49910;SDS011;35803;53.096;5.844;2023-07-13T12:29:13;0.90;;;0.82;;
49910;SDS011;35803;53.096;5.844;2023-07-13T12:32:01;5.97;;;1.30;;
49910;SDS011;35803;53.096;5.844;2023-07-13T12:35:01;2.65;;;1.10;;
49910;SDS011;35803;53.096;5.844;2023-07-13T12:37:54;4.03;;;1.35;;
49910;SDS011;35803;53.096;5.844;2023-07-13T12:40:43;3.92;;;1.52;;
49910;SDS011;35803;53.096;5.844;2023-07-13T12:43:30;3.55;;;1.55;;
49910;SDS011;35803;53.096;5.844;2023-07-13T12:46:23;3.22;;;1.60;;
49910;SDS011;35803;53.096;5.844;2023-07-13T12:49:12;2.97;;;1.38;;
49910;SDS011;35803;53.096;5.844;2023-07-13T12:51:59;3.15;;;1.48;;
49910;SDS011;35803;53.096;5.844;2023-07-13T12:54:53;2.53;;;1.27;;
49910;SDS011;35803;53.096;5.844;2023-07-13T12:57:50;1.85;;;1.00;;
49910;SDS011;35803;53.096;5.844;2023-07-13T13:00:37;1.38;;;1.10;;
49910;SDS011;35803;53.096;5.844;2023-07-13T13:03:37;2.97;;;1.30;;
49910;SDS011;35803;53.096;5.844;2023-07-13T13:06:28;2.40;;;1.08;;
49910;SDS011;35803;53.096;5.844;2023-07-13T13:09:17;4.05;;;1.35;;
49910;SDS011;35803;53.096;5.844;2023-07-13T13:12:05;3.42;;;1.05;;
49910;SDS011;35803;53.096;5.844;2023-07-13T13:14:52;3.65;;;1.30;;
49910;SDS011;35803;53.096;5.844;2023-07-13T13:17:39;1.80;;;1.00;;
49910;SDS011;35803;53.096;5.844;2023-07-13T13:20:25;4.15;;;1.40;;
49910;SDS011;35803;53.096;5.844;2023-07-13T13:23:14;3.75;;;1.00;;
49910;SDS011;35803;53.096;5.844;2023-07-13T13:26:03;3.60;;;1.23;;
49910;SDS011;35803;53.096;5.844;2023-07-13T13:28:49;1.83;;;1.30;;
49910;SDS011;35803;53.096;5.844;2023-07-13T13:31:35;3.63;;;1.15;;
49910;SDS011;35803;53.096;5.844;2023-07-13T13:34:21;4.53;;;1.50;;
49910;SDS011;35803;53.096;5.844;2023-07-13T13:37:19;4.13;;;1.45;;
49910;SDS011;35803;53.096;5.844;2023-07-13T13:40:26;2.60;;;1.05;;
49910;SDS011;35803;53.096;5.844;2023-07-13T13:43:16;3.90;;;1.52;;
49910;SDS011;35803;53.096;5.844;2023-07-13T13:46:09;2.60;;;1.00;;
49910;SDS011;35803;53.096;5.844;2023-07-13T13:48:58;4.55;;;1.45;;
49910;SDS011;35803;53.096;5.844;2023-07-13T13:51:44;2.30;;;1.23;;
49910;SDS011;35803;53.096;5.844;2023-07-13T13:54:30;5.03;;;1.30;;
49910;SDS011;35803;53.096;5.844;2023-07-13T13:57:16;2.13;;;1.13;;
49910;SDS011;35803;53.096;5.844;2023-07-13T14:00:02;1.15;;;0.75;;
49910;SDS011;35803;53.096;5.844;2023-07-13T14:02:48;6.50;;;1.35;;
49910;SDS011;35803;53.096;5.844;2023-07-13T14:05:36;2.40;;;1.00;;
49910;SDS011;35803;53.096;5.844;2023-07-13T14:08:21;1.77;;;1.10;;
49910;SDS011;35803;53.096;5.844;2023-07-13T14:11:14;4.75;;;1.35;;
49910;SDS011;35803;53.096;5.844;2023-07-13T14:14:00;2.15;;;1.00;;
49910;SDS011;35803;53.096;5.844;2023-07-13T14:16:48;2.35;;;0.98;;
49910;SDS011;35803;53.096;5.844;2023-07-13T14:19:38;2.63;;;1.10;;
49910;SDS011;35803;53.096;5.844;2023-07-13T14:22:24;4.00;;;1.23;;
49910;SDS011;35803;53.096;5.844;2023-07-13T14:25:14;4.03;;;1.63;;
49910;SDS011;35803;53.096;5.844;2023-07-13T14:28:04;2.03;;;1.30;;
49910;SDS011;35803;53.096;5.844;2023-07-13T14:31:05;7.55;;;1.38;;
49910;SDS011;35803;53.096;5.844;2023-07-13T14:33:51;2.65;;;1.10;;
49910;SDS011;35803;53.096;5.844;2023-07-13T14:36:41;5.38;;;1.35;;
49910;SDS011;35803;53.096;5.844;2023-07-13T14:39:31;4.15;;;1.10;;
49910;SDS011;35803;53.096;5.844;2023-07-13T14:42:16;3.33;;;1.63;;
49910;SDS011;35803;53.096;5.844;2023-07-13T14:45:02;3.33;;;1.33;;
49910;SDS011;35803;53.096;5.844;2023-07-13T14:47:48;3.28;;;1.20;;
49910;SDS011;35803;53.096;5.844;2023-07-13T14:50:34;4.40;;;1.30;;
49910;SDS011;35803;53.096;5.844;2023-07-13T14:53:21;2.55;;;1.27;;
49910;SDS011;35803;53.096;5.844;2023-07-13T14:56:11;3.63;;;1.40;;
49910;SDS011;35803;53.096;5.844;2023-07-13T14:58:57;3.53;;;1.50;;
49910;SDS011;35803;53.096;5.844;2023-07-13T15:01:42;3.13;;;1.13;;
49910;SDS011;35803;53.096;5.844;2023-07-13T15:04:29;2.85;;;1.25;;
49910;SDS011;35803;53.096;5.844;2023-07-13T15:07:15;2.28;;;1.17;;
49910;SDS011;35803;53.096;5.844;2023-07-13T15:10:11;4.30;;;1.50;;
49910;SDS011;35803;53.096;5.844;2023-07-13T15:13:14;2.70;;;1.30;;
49910;SDS011;35803;53.096;5.844;2023-07-13T15:16:00;3.15;;;1.45;;
49910;SDS011;35803;53.096;5.844;2023-07-13T15:18:46;5.30;;;1.15;;
49910;SDS011;35803;53.096;5.844;2023-07-13T15:21:32;3.25;;;1.50;;
49910;SDS011;35803;53.096;5.844;2023-07-13T15:24:20;3.60;;;1.50;;
49910;SDS011;35803;53.096;5.844;2023-07-13T15:27:11;2.42;;;1.25;;
49910;SDS011;35803;53.096;5.844;2023-07-13T15:29:57;3.00;;;1.50;;
49910;SDS011;35803;53.096;5.844;2023-07-13T15:32:43;5.93;;;1.67;;
49910;SDS011;35803;53.096;5.844;2023-07-13T15:35:30;3.75;;;1.60;;
49910;SDS011;35803;53.096;5.844;2023-07-13T15:38:20;3.15;;;1.20;;
49910;SDS011;35803;53.096;5.844;2023-07-13T15:41:10;2.85;;;1.58;;
49910;SDS011;35803;53.096;5.844;2023-07-13T15:44:04;2.60;;;1.38;;
49910;SDS011;35803;53.096;5.844;2023-07-13T15:47:08;3.10;;;1.13;;
49910;SDS011;35803;53.096;5.844;2023-07-13T15:49:56;1.77;;;1.38;;
49910;SDS011;35803;53.096;5.844;2023-07-13T15:52:44;4.05;;;1.48;;
49910;SDS011;35803;53.096;5.844;2023-07-13T15:55:31;3.40;;;1.65;;
49910;SDS011;35803;53.096;5.844;2023-07-13T15:58:16;4.65;;;1.45;;
49910;SDS011;35803;53.096;5.844;2023-07-13T16:01:02;3.30;;;1.30;;
49910;SDS011;35803;53.096;5.844;2023-07-13T16:03:49;3.13;;;1.60;;
49910;SDS011;35803;53.096;5.844;2023-07-13T16:06:37;4.60;;;1.48;;
49910;SDS011;35803;53.096;5.844;2023-07-13T16:09:27;2.47;;;1.45;;
49910;SDS011;35803;53.096;5.844;2023-07-13T16:12:13;2.03;;;1.40;;
49910;SDS011;35803;53.096;5.844;2023-07-13T16:15:00;2.97;;;1.58;;
49910;SDS011;35803;53.096;5.844;2023-07-13T16:17:46;4.13;;;2.05;;
49910;SDS011;35803;53.096;5.844;2023-07-13T16:20:32;4.18;;;1.48;;
49910;SDS011;35803;53.096;5.844;2023-07-13T16:23:18;3.53;;;1.48;;
49910;SDS011;35803;53.096;5.844;2023-07-13T16:26:08;3.42;;;1.50;;
49910;SDS011;35803;53.096;5.844;2023-07-13T16:29:12;3.75;;;1.27;;
49910;SDS011;35803;53.096;5.844;2023-07-13T16:32:06;3.50;;;1.50;;
49910;SDS011;35803;53.096;5.844;2023-07-13T16:34:56;3.80;;;1.42;;
49910;SDS011;35803;53.096;5.844;2023-07-13T16:37:41;3.55;;;1.90;;
49910;SDS011;35803;53.096;5.844;2023-07-13T16:40:29;3.55;;;1.45;;
49910;SDS011;35803;53.096;5.844;2023-07-13T16:43:16;2.78;;;1.50;;
49910;SDS011;35803;53.096;5.844;2023-07-13T16:46:07;2.53;;;1.42;;
49910;SDS011;35803;53.096;5.844;2023-07-13T16:48:55;3.58;;;1.50;;
49910;SDS011;35803;53.096;5.844;2023-07-13T16:51:41;2.25;;;1.67;;
49910;SDS011;35803;53.096;5.844;2023-07-13T16:54:28;4.43;;;1.63;;
49910;SDS011;35803;53.096;5.844;2023-07-13T16:57:17;3.08;;;1.33;;
49910;SDS011;35803;53.096;5.844;2023-07-13T17:00:08;2.38;;;1.48;;
49910;SDS011;35803;53.096;5.844;2023-07-13T17:03:13;3.90;;;1.60;;
49910;SDS011;35803;53.096;5.844;2023-07-13T17:05:58;4.85;;;1.60;;
49910;SDS011;35803;53.096;5.844;2023-07-13T17:08:45;5.50;;;2.30;;
49910;SDS011;35803;53.096;5.844;2023-07-13T17:11:31;3.80;;;1.50;;
49910;SDS011;35803;53.096;5.844;2023-07-13T17:14:18;3.80;;;1.65;;
49910;SDS011;35803;53.096;5.844;2023-07-13T17:17:09;6.00;;;1.75;;
49910;SDS011;35803;53.096;5.844;2023-07-13T17:20:01;4.68;;;1.52;;
49910;SDS011;35803;53.096;5.844;2023-07-13T17:22:49;6.07;;;1.60;;
49910;SDS011;35803;53.096;5.844;2023-07-13T17:25:37;2.80;;;1.42;;